sensor_id;sensor_type;location;lat;lon;timestamp;P1;durP1;ratioP1;P2;durP2;ratioP2
65063;SDS011;51654;51.452;6.644;2022-08-01T06:45:56;5.38;;;3.67;;
65063;SDS011;51654;51.452;6.644;2022-08-01T06:48:23;3.13;;;2.83;;
65063;SDS011;51654;51.452;6.644;2022-08-01T06:50:50;2.88;;;2.65;;
65063;SDS011;51654;51.452;6.644;2022-08-01T06:53:37;6.25;;;2.42;;
65063;SDS011;51654;51.452;6.644;2022-08-01T07:36:14;1.65;;;1.65;;
65063;SDS011;51654;51.452;6.644;2022-08-01T07:43:36;2.67;;;2.47;;
65063;SDS011;51654;51.452;6.644;2022-08-01T07:46:03;2.90;;;2.15;;
65063;SDS011;51654;51.452;6.644;2022-08-01T07:53:32;2.28;;;2.17;;
65063;SDS011;51654;51.452;6.644;2022-08-01T07:55:58;8.73;;;3.42;;
65063;SDS011;51654;51.452;6.644;2022-08-01T07:58:30;3.17;;;3.03;;
65063;SDS011;51654;51.452;6.644;2022-08-01T08:13:19;2.05;;;1.05;;
65063;SDS011;51654;51.452;6.644;2022-08-01T08:15:46;1.27;;;1.17;;
65063;SDS011;51654;51.452;6.644;2022-08-01T08:18:14;0.90;;;0.90;;
65063;SDS011;51654;51.452;6.644;2022-08-01T08:20:41;0.90;;;0.90;;
65063;SDS011;51654;51.452;6.644;2022-08-01T08:23:08;0.68;;;0.68;;
65063;SDS011;51654;51.452;6.644;2022-08-01T08:26:09;0.68;;;0.68;;
65063;SDS011;51654;51.452;6.644;2022-08-01T08:28:37;3.22;;;1.35;;
65063;SDS011;51654;51.452;6.644;2022-08-01T08:36:17;4.15;;;2.05;;
65063;SDS011;51654;51.452;6.644;2022-08-01T08:41:11;0.93;;;0.90;;
65063;SDS011;51654;51.452;6.644;2022-08-01T08:43:45;0.82;;;0.82;;
65063;SDS011;51654;51.452;6.644;2022-08-01T08:51:08;0.73;;;0.73;;
65063;SDS011;51654;51.452;6.644;2022-08-01T08:53:40;0.90;;;0.90;;
65063;SDS011;51654;51.452;6.644;2022-08-01T08:56:14;0.90;;;0.90;;
65063;SDS011;51654;51.452;6.644;2022-08-01T08:58:42;1.48;;;1.38;;
65063;SDS011;51654;51.452;6.644;2022-08-01T09:01:11;1.42;;;1.20;;
65063;SDS011;51654;51.452;6.644;2022-08-01T09:03:40;1.23;;;1.08;;
65063;SDS011;51654;51.452;6.644;2022-08-01T09:23:36;8.25;;;1.75;;
65063;SDS011;51654;51.452;6.644;2022-08-01T09:26:21;0.60;;;0.60;;
65063;SDS011;51654;51.452;6.644;2022-08-01T09:28:56;1.10;;;1.10;;
65063;SDS011;51654;51.452;6.644;2022-08-01T09:31:24;0.60;;;0.60;;
65063;SDS011;51654;51.452;6.644;2022-08-01T09:34:04;1.48;;;1.48;;
65063;SDS011;51654;51.452;6.644;2022-08-01T09:36:48;1.33;;;1.23;;
65063;SDS011;51654;51.452;6.644;2022-08-01T09:39:24;3.00;;;1.35;;
65063;SDS011;51654;51.452;6.644;2022-08-01T09:42:20;0.90;;;0.90;;
65063;SDS011;51654;51.452;6.644;2022-08-01T09:57:38;1.20;;;1.20;;
65063;SDS011;51654;51.452;6.644;2022-08-01T10:00:18;1.88;;;1.77;;
65063;SDS011;51654;51.452;6.644;2022-08-01T10:16:20;3.97;;;3.78;;
65063;SDS011;51654;51.452;6.644;2022-08-01T10:42:58;0.75;;;0.75;;
65063;SDS011;51654;51.452;6.644;2022-08-01T11:44:19;1.33;;;1.33;;
65063;SDS011;51654;51.452;6.644;2022-08-01T11:47:02;1.45;;;1.45;;
65063;SDS011;51654;51.452;6.644;2022-08-01T11:52:26;1.60;;;1.60;;
65063;SDS011;51654;51.452;6.644;2022-08-01T13:17:46;10.10;;;6.10;;
65063;SDS011;51654;51.452;6.644;2022-08-01T14:00:28;54.88;;;11.82;;
65063;SDS011;51654;51.452;6.644;2022-08-01T14:02:54;33.17;;;14.07;;
65063;SDS011;51654;51.452;6.644;2022-08-01T14:05:21;31.55;;;15.93;;
65063;SDS011;51654;51.452;6.644;2022-08-01T14:07:48;15.65;;;8.65;;
65063;SDS011;51654;51.452;6.644;2022-08-01T14:10:21;16.08;;;8.05;;
65063;SDS011;51654;51.452;6.644;2022-08-01T14:12:49;9.68;;;5.05;;
65063;SDS011;51654;51.452;6.644;2022-08-01T14:15:16;2.35;;;2.15;;
65063;SDS011;51654;51.452;6.644;2022-08-01T14:18:04;14.40;;;7.65;;
65063;SDS011;51654;51.452;6.644;2022-08-01T14:20:33;5.80;;;3.78;;
65063;SDS011;51654;51.452;6.644;2022-08-01T14:23:01;7.18;;;3.83;;
65063;SDS011;51654;51.452;6.644;2022-08-01T14:25:27;10.60;;;6.20;;
65063;SDS011;51654;51.452;6.644;2022-08-01T14:28:14;11.55;;;5.95;;
65063;SDS011;51654;51.452;6.644;2022-08-01T14:30:41;4.45;;;2.90;;
65063;SDS011;51654;51.452;6.644;2022-08-01T14:33:12;5.25;;;2.97;;
65063;SDS011;51654;51.452;6.644;2022-08-01T14:35:40;6.32;;;3.58;;
65063;SDS011;51654;51.452;6.644;2022-08-01T14:38:27;2.50;;;1.23;;
65063;SDS011;51654;51.452;6.644;2022-08-01T14:40:58;2.70;;;2.45;;
65063;SDS011;51654;51.452;6.644;2022-08-01T14:43:25;2.03;;;1.88;;
65063;SDS011;51654;51.452;6.644;2022-08-01T14:48:25;2.42;;;2.22;;
65063;SDS011;51654;51.452;6.644;2022-08-01T14:50:52;4.55;;;1.90;;
65063;SDS011;51654;51.452;6.644;2022-08-01T14:53:19;1.70;;;1.42;;
65063;SDS011;51654;51.452;6.644;2022-08-01T14:55:46;1.30;;;1.05;;
65063;SDS011;51654;51.452;6.644;2022-08-01T14:58:13;3.65;;;2.08;;
65063;SDS011;51654;51.452;6.644;2022-08-01T15:00:40;2.85;;;1.50;;
65063;SDS011;51654;51.452;6.644;2022-08-01T15:03:08;1.13;;;0.77;;
65063;SDS011;51654;51.452;6.644;2022-08-01T15:37:29;4.07;;;1.33;;
65063;SDS011;51654;51.452;6.644;2022-08-01T15:39:56;3.30;;;1.00;;
65063;SDS011;51654;51.452;6.644;2022-08-01T15:42:23;2.38;;;1.42;;
65063;SDS011;51654;51.452;6.644;2022-08-01T15:44:52;4.20;;;0.73;;
65063;SDS011;51654;51.452;6.644;2022-08-01T15:47:19;5.95;;;0.75;;
65063;SDS011;51654;51.452;6.644;2022-08-01T19:58:51;4.05;;;1.40;;
